AMX866 MMMX-MMVR
Flight info
| Callsign | AMX866 |
|---|---|
| Flight time | N/A |
| Altitude | 29000 |
| Route | NOXOS3A NOXOS UT155 AVALI UT61 DURIB DURIB1B |
| Aircraft | B38M/M-SDE1FGHILORVWXY/HB1 |
Departure
| Time | N/A |
|---|---|
| Airport | Mexico City Benito Juárez International Airport (MMMX) |
Arrival
| Time | 2026-05-01 07:46 |
|---|---|
| Airport | General Heriberto Jara International Airport (MMVR) |
| Time | Latitude | Longitude | Altitude | Speed | Heading |
|---|---|---|---|---|---|
| 2026-05-01 07:23 | 19.85126 | -97.47839 | 28453 ft | 432 kts | 62° |
| 2026-05-01 07:23 | 19.87760 | -97.42206 | 27735 ft | 420 kts | 63° |
| 2026-05-01 07:24 | 19.89051 | -97.39445 | 27426 ft | 413 kts | 62° |
| 2026-05-01 07:24 | 19.90283 | -97.36804 | 27813 ft | 386 kts | 62° |
| 2026-05-01 07:24 | 19.91344 | -97.34253 | 27817 ft | 377 kts | 72° |
| 2026-05-01 07:24 | 19.91730 | -97.31459 | 26984 ft | 391 kts | 93° |
| 2026-05-01 07:25 | 19.91430 | -97.28553 | 26209 ft | 400 kts | 94° |
| 2026-05-01 07:25 | 19.91294 | -97.25575 | 25425 ft | 408 kts | 92° |
| 2026-05-01 07:25 | 19.91186 | -97.22531 | 24674 ft | 416 kts | 92° |
| 2026-05-01 07:25 | 19.91090 | -97.19434 | 23929 ft | 423 kts | 92° |
| 2026-05-01 07:26 | 19.90993 | -97.16303 | 23380 ft | 424 kts | 92° |
| 2026-05-01 07:26 | 19.90896 | -97.13187 | 22873 ft | 420 kts | 92° |
| 2026-05-01 07:26 | 19.90797 | -97.10099 | 22435 ft | 416 kts | 92° |
| 2026-05-01 07:26 | 19.90698 | -97.07049 | 22011 ft | 411 kts | 93° |
| 2026-05-01 07:27 | 19.90237 | -97.04053 | 21229 ft | 415 kts | 109° |
| 2026-05-01 07:27 | 19.88929 | -97.01325 | 20444 ft | 414 kts | 125° |
| 2026-05-01 07:27 | 19.87371 | -96.98798 | 19740 ft | 405 kts | 121° |
| 2026-05-01 07:27 | 19.85923 | -96.96256 | 19037 ft | 399 kts | 121° |
| 2026-05-01 07:28 | 19.84510 | -96.93748 | 18356 ft | 393 kts | 121° |
| 2026-05-01 07:28 | 19.83124 | -96.91269 | 17635 ft | 387 kts | 121° |
| 2026-05-01 07:28 | 19.81761 | -96.88828 | 16890 ft | 382 kts | 121° |
| 2026-05-01 07:28 | 19.80419 | -96.86420 | 16169 ft | 377 kts | 120° |
| 2026-05-01 07:29 | 19.79092 | -96.84039 | 15479 ft | 372 kts | 120° |
| 2026-05-01 07:29 | 19.77783 | -96.81691 | 14805 ft | 368 kts | 120° |
| 2026-05-01 07:29 | 19.76486 | -96.79366 | 14148 ft | 364 kts | 120° |
| 2026-05-01 07:29 | 19.75204 | -96.77068 | 13541 ft | 360 kts | 120° |
| 2026-05-01 07:30 | 19.73996 | -96.74901 | 12997 ft | 353 kts | 121° |
| 2026-05-01 07:30 | 19.72759 | -96.72689 | 12626 ft | 339 kts | 121° |
| 2026-05-01 07:30 | 19.71577 | -96.70579 | 12310 ft | 326 kts | 121° |
| 2026-05-01 07:30 | 19.70443 | -96.68550 | 11985 ft | 314 kts | 121° |
| 2026-05-01 07:31 | 19.69348 | -96.66594 | 11661 ft | 303 kts | 121° |
| 2026-05-01 07:31 | 19.66172 | -96.60904 | 10703 ft | 304 kts | 121° |
| 2026-05-01 07:32 | 19.64014 | -96.57055 | 10043 ft | 302 kts | 121° |
| 2026-05-01 07:32 | 19.62951 | -96.55149 | 9868 ft | 297 kts | 121° |
| 2026-05-01 07:33 | 19.61336 | -96.52264 | 9647 ft | 285 kts | 121° |
| 2026-05-01 07:33 | 19.60389 | -96.50573 | 9397 ft | 281 kts | 121° |
| 2026-05-01 07:33 | 19.58408 | -96.47037 | 8790 ft | 277 kts | 122° |
| 2026-05-01 07:34 | 19.57425 | -96.45286 | 8491 ft | 275 kts | 122° |
| 2026-05-01 07:34 | 19.55495 | -96.41836 | 7917 ft | 270 kts | 122° |
| 2026-05-01 07:34 | 19.54537 | -96.40137 | 7631 ft | 267 kts | 123° |
| 2026-05-01 07:35 | 19.53597 | -96.38458 | 7374 ft | 262 kts | 122° |
| 2026-05-01 07:35 | 19.52682 | -96.36830 | 7101 ft | 252 kts | 123° |
| 2026-05-01 07:35 | 19.51800 | -96.35258 | 6816 ft | 244 kts | 123° |
| 2026-05-01 07:35 | 19.50948 | -96.33740 | 6563 ft | 236 kts | 123° |
| 2026-05-01 07:36 | 19.50123 | -96.32270 | 6307 ft | 228 kts | 123° |
| 2026-05-01 07:36 | 19.49334 | -96.30868 | 6060 ft | 221 kts | 124° |
| 2026-05-01 07:36 | 19.48551 | -96.29472 | 5808 ft | 214 kts | 124° |
| 2026-05-01 07:36 | 19.47811 | -96.28155 | 5577 ft | 207 kts | 124° |
| 2026-05-01 07:37 | 19.46389 | -96.25626 | 5135 ft | 193 kts | 125° |
| 2026-05-01 07:37 | 19.45717 | -96.24431 | 4932 ft | 185 kts | 125° |
| 2026-05-01 07:37 | 19.45071 | -96.23281 | 4740 ft | 178 kts | 125° |
| 2026-05-01 07:38 | 19.44453 | -96.22181 | 4555 ft | 170 kts | 126° |
| 2026-05-01 07:38 | 19.43850 | -96.21108 | 4406 ft | 171 kts | 126° |
| 2026-05-01 07:38 | 19.42610 | -96.18902 | 4258 ft | 175 kts | 125° |
| 2026-05-01 07:39 | 19.41989 | -96.17799 | 4161 ft | 174 kts | 125° |
| 2026-05-01 07:39 | 19.41368 | -96.16696 | 4069 ft | 174 kts | 125° |
| 2026-05-01 07:39 | 19.40061 | -96.14557 | 3836 ft | 169 kts | 142° |
| 2026-05-01 07:40 | 19.39035 | -96.14119 | 3616 ft | 157 kts | 177° |
| 2026-05-01 07:40 | 19.37956 | -96.14156 | 3556 ft | 155 kts | 182° |
| 2026-05-01 07:40 | 19.36881 | -96.14262 | 3537 ft | 155 kts | 185° |
| 2026-05-01 07:40 | 19.35809 | -96.14415 | 3518 ft | 156 kts | 187° |
| 2026-05-01 07:41 | 19.34741 | -96.14598 | 3509 ft | 155 kts | 188° |
| 2026-05-01 07:41 | 19.33678 | -96.14800 | 3503 ft | 155 kts | 188° |
| 2026-05-01 07:41 | 19.31545 | -96.15228 | 3156 ft | 155 kts | 188° |
| 2026-05-01 07:42 | 19.30486 | -96.15444 | 2980 ft | 155 kts | 188° |
| 2026-05-01 07:42 | 19.29427 | -96.15663 | 2779 ft | 155 kts | 189° |
| 2026-05-01 07:42 | 19.28371 | -96.15879 | 2593 ft | 154 kts | 188° |
| 2026-05-01 07:42 | 19.27321 | -96.16096 | 2406 ft | 153 kts | 188° |
| 2026-05-01 07:43 | 19.26277 | -96.16311 | 2224 ft | 153 kts | 188° |
| 2026-05-01 07:43 | 19.25233 | -96.16527 | 2032 ft | 153 kts | 187° |
| 2026-05-01 07:43 | 19.23148 | -96.16962 | 1643 ft | 153 kts | 188° |
| 2026-05-01 07:44 | 19.21388 | -96.17329 | 1338 ft | 154 kts | 188° |
| 2026-05-01 07:44 | 19.19295 | -96.17760 | 918 ft | 149 kts | 189° |
| 2026-05-01 07:45 | 19.18294 | -96.17966 | 735 ft | 145 kts | 189° |
| 2026-05-01 07:45 | 19.17302 | -96.18180 | 553 ft | 146 kts | 191° |
| 2026-05-01 07:45 | 19.16298 | -96.18379 | 405 ft | 147 kts | 192° |
| 2026-05-01 07:45 | 19.15290 | -96.18585 | 207 ft | 147 kts | 192° |
| 2026-05-01 07:46 | 19.14315 | -96.18790 | 118 ft | 132 kts | 191° |
| 2026-05-01 07:46 | 19.13633 | -96.18933 | 120 ft | 67 kts | 191° |
| 2026-05-01 07:46 | 19.13200 | -96.19044 | 121 ft | 10 kts | 191° |
| 2026-05-01 07:47 | 19.13184 | -96.19020 | 121 ft | 4 kts | 57° |
| 2026-05-01 07:47 | 19.13224 | -96.19011 | 119 ft | 9 kts | 6° |
| 2026-05-01 07:47 | 19.13307 | -96.18999 | 121 ft | 16 kts | 10° |
| 2026-05-01 07:47 | 19.13439 | -96.18972 | 120 ft | 23 kts | 12° |
| 2026-05-01 07:48 | 19.13797 | -96.18898 | 116 ft | 30 kts | 11° |
| 2026-05-01 07:48 | 19.13933 | -96.18869 | 115 ft | 8 kts | 18° |
| 2026-05-01 07:48 | 19.13979 | -96.18833 | 120 ft | 9 kts | 42° |
| 2026-05-01 07:49 | 19.14030 | -96.18785 | 119 ft | 11 kts | 41° |
| 2026-05-01 07:49 | 19.14170 | -96.18658 | 119 ft | 9 kts | 41° |
| 2026-05-01 07:49 | 19.14211 | -96.18602 | 116 ft | 11 kts | 80° |
| 2026-05-01 07:50 | 19.14202 | -96.18541 | 119 ft | 7 kts | 104° |
| 2026-05-01 07:50 | 19.14189 | -96.18472 | 120 ft | 4 kts | 101° |
| 2026-05-01 07:50 | 19.14186 | -96.18456 | 121 ft | 2 kts | 101° |
| 2026-05-01 07:51 | 19.14185 | -96.18450 | 121 ft | 1 kts | 101° |
| 2026-05-01 07:51 | 19.14184 | -96.18446 | 121 ft | 0 kts | 101° |